createdAt,value
2022-12-12T00:00:09.396Z,100439.00
2022-12-12T00:02:39.390Z,100445.03
2022-12-12T00:05:06.473Z,100441.41
2022-12-12T00:07:32.968Z,100441.22
2022-12-12T00:09:59.718Z,100445.03
2022-12-12T00:12:26.289Z,100450.91
2022-12-12T00:14:53.024Z,100448.94
2022-12-12T00:17:19.911Z,100448.09
2022-12-12T00:19:46.541Z,100447.81
2022-12-12T00:22:12.997Z,100445.59
2022-12-12T00:24:39.979Z,100447.88
2022-12-12T00:27:12.291Z,100450.00
2022-12-12T00:29:39.171Z,100456.84
2022-12-12T00:32:05.785Z,100454.19
2022-12-12T00:34:32.429Z,100449.72
2022-12-12T00:36:59.191Z,100454.19
2022-12-12T00:39:25.633Z,100455.47
2022-12-12T00:41:52.277Z,100457.69
2022-12-12T00:44:19.136Z,100456.56
2022-12-12T00:46:45.598Z,100450.53
2022-12-12T00:49:13.121Z,100451.13
2022-12-12T00:51:39.716Z,100456.28
2022-12-12T00:54:11.121Z,100461.28
2022-12-12T00:56:39.319Z,100463.00
2022-12-12T00:59:06.154Z,100468.34
2022-12-12T01:01:33.560Z,100461.06
2022-12-12T01:04:00.256Z,100459.38
2022-12-12T01:06:27.325Z,100463.06
2022-12-12T01:08:54.223Z,100464.44
2022-12-12T01:11:21.109Z,100473.13
2022-12-12T01:13:48.387Z,100476.06
2022-12-12T01:16:15.117Z,100466.13
2022-12-12T01:18:42.180Z,100479.88
2022-12-12T01:21:19.996Z,100481.84
2022-12-12T01:23:46.585Z,100476.94
2022-12-12T01:26:14.737Z,100481.03
2022-12-12T01:28:42.804Z,100487.31
2022-12-12T01:31:09.778Z,100491.41
2022-12-12T01:33:36.509Z,100495.59
2022-12-12T01:36:03.845Z,100495.31
2022-12-12T01:38:30.292Z,100490.94
2022-12-12T01:40:56.799Z,100493.59
2022-12-12T01:43:24.075Z,100485.47
2022-12-12T01:46:00.117Z,100489.41
2022-12-12T01:48:29.190Z,100491.38
2022-12-12T01:50:57.725Z,100489.13
2022-12-12T01:53:25.859Z,100494.47
2022-12-12T01:55:53.828Z,100488.00
2022-12-12T01:58:20.252Z,100491.38
2022-12-12T02:00:46.668Z,100497.97
2022-12-12T02:03:13.079Z,100498.13
2022-12-12T02:05:41.994Z,100497.00
2022-12-12T02:08:09.693Z,100498.97
2022-12-12T02:10:36.416Z,100493.06
2022-12-12T02:13:06.396Z,100504.44
2022-12-12T02:15:38.400Z,100496.13
2022-12-12T02:18:12.501Z,100500.91
2022-12-12T02:20:47.933Z,100494.16
2022-12-12T02:23:21.419Z,100499.78
2022-12-12T02:25:50.887Z,100504.66
2022-12-12T02:28:20.395Z,100498.66
2022-12-12T02:31:05.613Z,100509.03
2022-12-12T02:33:36.930Z,100514.31
2022-12-12T02:36:09.443Z,100506.78
2022-12-12T02:38:41.836Z,100509.13
2022-12-12T02:41:27.404Z,100505.38
2022-12-12T02:44:03.163Z,100504.19
2022-12-12T02:46:32.571Z,100501.72
2022-12-12T02:49:18.664Z,100504.13
2022-12-12T02:51:45.827Z,100501.41
2022-12-12T02:54:17.226Z,100492.59
2022-12-12T02:56:47.815Z,100495.78
2022-12-12T02:59:21.159Z,100495.78
2022-12-12T03:02:00.158Z,100497.31
2022-12-12T03:04:52.344Z,100504.06
2022-12-12T03:07:46.953Z,100493.78
2022-12-12T03:10:19.358Z,100494.38
2022-12-12T03:12:48.673Z,100494.13
2022-12-12T03:15:22.323Z,100498.31
2022-12-12T03:17:54.668Z,100500.09
2022-12-12T03:20:25.807Z,100498.56
2022-12-12T03:22:56.388Z,100497.72
2022-12-12T03:25:26.732Z,100498.78
2022-12-12T03:27:56.200Z,100496.53
2022-12-12T03:30:22.811Z,100503.81
2022-12-12T03:32:54.046Z,100494.13
2022-12-12T03:35:29.935Z,100500.97
2022-12-12T03:38:13.090Z,100502.19
2022-12-12T03:40:43.830Z,100506.81
2022-12-12T03:43:13.508Z,100503.44
2022-12-12T03:45:49.521Z,100501.94
2022-12-12T03:48:26.336Z,100502.44
2022-12-12T03:51:34.835Z,100503.16
2022-12-12T03:54:10.181Z,100511.03
2022-12-12T03:56:49.092Z,100509.47
2022-12-12T03:59:36.619Z,100507.50
2022-12-12T04:02:23.253Z,100515.75
2022-12-12T04:04:50.697Z,100515.72
2022-12-12T04:07:20.580Z,100528.91
2022-12-12T04:10:05.664Z,100528.94
2022-12-12T04:12:51.079Z,100524.31
2022-12-12T04:23:17.513Z,100527.00
2022-12-12T04:26:09.881Z,100522.53
2022-12-12T04:28:41.195Z,100519.94
2022-12-12T04:31:09.290Z,100527.63
2022-12-12T04:33:41.561Z,100533.31
2022-12-12T04:36:10.113Z,100525.50
2022-12-12T04:38:37.517Z,100536.16
2022-12-12T04:41:06.622Z,100542.69
2022-12-12T04:43:35.693Z,100532.28
2022-12-12T04:46:04.907Z,100537.88
2022-12-12T04:48:38.058Z,100541.97
2022-12-12T04:51:06.203Z,100536.75
2022-12-12T04:53:35.340Z,100546.03
2022-12-12T04:56:05.975Z,100546.44
2022-12-12T04:58:33.644Z,100543.47
2022-12-12T05:01:06.720Z,100550.94
2022-12-12T05:03:41.695Z,100555.09
2022-12-12T05:06:13.385Z,100552.69
2022-12-12T05:08:42.858Z,100554.03
2022-12-12T05:11:09.587Z,100550.41
2022-12-12T05:13:37.744Z,100549.56
2022-12-12T05:16:10.168Z,100552.44
2022-12-12T05:18:36.583Z,100554.88
2022-12-12T05:21:03.089Z,100556.50
2022-12-12T05:23:34.607Z,100558.28
2022-12-12T05:26:06.417Z,100556.56
2022-12-12T05:28:32.954Z,100549.56
2022-12-12T05:30:59.578Z,100552.72
2022-12-12T05:33:25.997Z,100555.59
2022-12-12T05:35:52.496Z,100555.94
2022-12-12T05:38:18.935Z,100556.63
2022-12-12T05:40:45.500Z,100556.50
2022-12-12T05:43:12.285Z,100555.59
2022-12-12T05:45:39.102Z,100558.44
2022-12-12T05:48:05.796Z,100564.88
2022-12-12T05:50:32.241Z,100563.19
2022-12-12T05:52:58.802Z,100566.63
2022-12-12T05:55:26.163Z,100566.22
2022-12-12T05:57:53.043Z,100564.56
2022-12-12T06:00:19.842Z,100564.69
2022-12-12T06:02:46.491Z,100573.97
2022-12-12T06:05:13.195Z,100569.28
2022-12-12T06:07:40.344Z,100572.91
2022-12-12T06:10:07.288Z,100572.91
2022-12-12T06:12:33.706Z,100576.81
2022-12-12T06:15:00.422Z,100569.78
2022-12-12T06:17:31.382Z,100573.03
2022-12-12T06:20:01.061Z,100575.69
2022-12-12T06:22:27.950Z,100579.34
2022-12-12T06:24:54.391Z,100572.91
2022-12-12T06:27:20.768Z,100580.97
2022-12-12T06:29:47.197Z,100579.63
2022-12-12T06:32:13.661Z,100585.34
2022-12-12T06:34:49.247Z,100586.03
2022-12-12T06:37:32.254Z,100586.53
2022-12-12T06:40:07.441Z,100581.66
2022-12-12T06:42:37.071Z,100586.16
2022-12-12T06:45:06.745Z,100588.63
2022-12-12T06:47:33.672Z,100589.81
2022-12-12T06:50:00.550Z,100589.50
2022-12-12T06:52:29.011Z,100592.75
2022-12-12T06:55:01.695Z,100599.63
2022-12-12T06:57:28.554Z,100594.44
2022-12-12T06:59:57.743Z,100598.72
2022-12-12T07:02:33.034Z,100404.81
2022-12-12T07:05:17.410Z,100605.09
2022-12-12T07:08:53.456Z,100599.69
2022-12-12T07:11:31.751Z,100605.72
2022-12-12T17:32:24.519Z,100626.13
2022-12-12T17:34:51.254Z,100617.69
2022-12-12T17:37:18.760Z,100624.72
2022-12-12T17:39:45.287Z,100619.16
2022-12-12T17:42:11.699Z,100617.97
2022-12-12T17:44:40.656Z,100625.22
2022-12-12T17:47:07.069Z,100627.63
2022-12-12T17:49:33.573Z,100630.28
2022-12-12T17:52:02.442Z,100628.31
2022-12-12T17:54:35.819Z,100628.84
2022-12-12T17:57:04.840Z,100628.13
2022-12-12T17:59:31.293Z,100623.91
2022-12-12T18:01:57.875Z,100629.84
2022-12-12T18:04:39.030Z,100631.50
2022-12-12T18:07:12.256Z,100632.38
2022-12-12T18:09:38.811Z,100630.44
2022-12-12T18:12:10.032Z,100634.66
2022-12-12T18:14:42.363Z,100639.63
2022-12-12T18:17:08.874Z,100635.78
2022-12-12T18:19:35.369Z,100639.19
2022-12-12T18:22:02.530Z,100635.44
2022-12-12T18:24:29.860Z,100622.00
2022-12-12T18:26:58.345Z,100591.59
2022-12-12T18:29:25.474Z,100621.28
2022-12-12T18:31:52.594Z,100623.09
2022-12-12T18:34:19.576Z,100623.09
2022-12-12T18:40:28.029Z,100629.28
2022-12-12T18:42:55.133Z,100617.81
2022-12-12T18:45:21.653Z,100623.25
2022-12-12T18:47:48.217Z,100621.94
2022-12-12T18:50:14.927Z,100623.84
2022-12-12T18:52:41.889Z,100620.47
2022-12-12T18:55:08.641Z,100621.47
2022-12-12T18:57:35.419Z,100617.09
2022-12-12T19:00:02.289Z,100624.13
2022-12-12T19:02:29.145Z,100622.66
2022-12-12T19:04:55.669Z,100628.56
2022-12-12T19:07:22.384Z,100625.56
2022-12-12T19:09:48.986Z,100627.97
2022-12-12T19:12:15.512Z,100628.69
2022-12-12T19:15:07.981Z,100632.31
2022-12-12T19:17:28.999Z,100634.00
2022-12-12T19:19:55.627Z,100629.78
2022-12-12T19:22:44.498Z,100631.47
2022-12-12T19:25:10.992Z,100623.59
2022-12-12T19:27:37.512Z,100631.00
2022-12-12T19:30:04.689Z,100632.91
2022-12-12T21:53:07.162Z,100649.94
2022-12-12T21:55:37.750Z,100650.91
2022-12-12T21:58:04.276Z,100655.00
2022-12-12T22:00:30.592Z,100657.13
2022-12-12T22:02:57.610Z,100662.66
2022-12-12T22:05:25.386Z,100661.91
2022-12-12T22:07:53.148Z,100656.78
2022-12-12T22:10:19.534Z,100642.91
2022-12-12T22:12:57.418Z,100649.91
2022-12-12T22:15:24.265Z,100648.94
2022-12-12T22:17:50.852Z,100660.53
2022-12-12T22:20:17.252Z,100656.31
2022-12-12T22:22:43.591Z,100666.06
2022-12-12T22:25:09.924Z,100657.38
2022-12-12T22:27:36.957Z,100644.84
2022-12-12T22:30:03.521Z,100644.94
2022-12-12T22:32:29.890Z,100647.09
2022-12-12T22:34:58.236Z,100645.53
2022-12-12T22:37:24.624Z,100647.47
2022-12-12T22:39:51.120Z,100650.34
2022-12-12T22:42:17.496Z,100649.38
2022-12-12T22:44:43.829Z,100634.66
2022-12-12T22:47:10.215Z,100637.75
2022-12-12T22:49:36.695Z,100642.09
2022-12-12T22:52:03.128Z,100639.44
2022-12-12T22:54:29.561Z,100633.44
2022-12-12T22:56:55.941Z,100643.94
2022-12-12T22:59:22.301Z,100634.47
2022-12-12T23:01:48.796Z,100639.00
2022-12-12T23:04:15.569Z,100635.38
2022-12-12T23:06:42.829Z,100632.47
2022-12-12T23:09:18.020Z,100633.38
2022-12-12T23:11:44.454Z,100626.94
2022-12-12T23:14:14.191Z,100626.25
2022-12-12T23:16:40.653Z,100619.69
2022-12-12T23:19:07.638Z,100608.56
2022-12-12T23:21:35.000Z,100617.38
2022-12-12T23:24:01.913Z,100615.44
2022-12-12T23:26:30.345Z,100609.69
2022-12-12T23:28:57.712Z,100611.50
2022-12-12T23:31:25.630Z,100613.97
2022-12-12T23:33:53.216Z,100606.66
2022-12-12T23:36:20.140Z,100597.41
2022-12-12T23:38:46.468Z,100607.03
2022-12-12T23:41:14.373Z,100600.53
2022-12-12T23:43:41.685Z,100606.81
2022-12-12T23:46:27.910Z,100607.38
2022-12-12T23:48:55.454Z,100608.00
2022-12-12T23:51:21.952Z,100607.88
2022-12-12T23:53:49.423Z,100604.16
2022-12-12T23:56:15.822Z,100601.38
2022-12-12T23:58:42.408Z,100599.94
